sensor_id;sensor_type;location;lat;lon;timestamp;pressure;altitude;pressure_sealevel;temperature;humidity
40788;BME280;26497;52.494;7.546;2023-06-10T00:00:03;101019.38;;;22.23;45.07
40788;BME280;26497;52.494;7.546;2023-06-10T00:02:31;101008.34;;;22.29;45.02
40788;BME280;26497;52.494;7.546;2023-06-10T00:04:58;101011.72;;;22.34;45.42
40788;BME280;26497;52.494;7.546;2023-06-10T00:07:25;101013.72;;;22.29;45.21
40788;BME280;26497;52.494;7.546;2023-06-10T00:09:52;101014.88;;;22.23;45.68
40788;BME280;26497;52.494;7.546;2023-06-10T00:12:19;101014.94;;;22.22;45.56
40788;BME280;26497;52.494;7.546;2023-06-10T00:14:47;101012.38;;;22.19;46.06
40788;BME280;26497;52.494;7.546;2023-06-10T00:17:15;101014.41;;;22.14;46.37
40788;BME280;26497;52.494;7.546;2023-06-10T00:19:43;101011.84;;;22.10;46.19
40788;BME280;26497;52.494;7.546;2023-06-10T00:22:12;101022.47;;;22.14;46.34
40788;BME280;26497;52.494;7.546;2023-06-10T00:24:40;101011.00;;;22.10;46.62
40788;BME280;26497;52.494;7.546;2023-06-10T00:27:07;101007.50;;;22.08;46.50
40788;BME280;26497;52.494;7.546;2023-06-10T00:29:34;101006.16;;;22.18;46.27
40788;BME280;26497;52.494;7.546;2023-06-10T00:32:04;101014.41;;;22.14;46.57
40788;BME280;26497;52.494;7.546;2023-06-10T00:34:31;101017.34;;;22.07;46.82
40788;BME280;26497;52.494;7.546;2023-06-10T00:36:58;101017.63;;;22.01;46.76
40788;BME280;26497;52.494;7.546;2023-06-10T00:39:25;101019.44;;;22.01;46.62
40788;BME280;26497;52.494;7.546;2023-06-10T00:41:52;101015.59;;;21.86;47.36
40788;BME280;26497;52.494;7.546;2023-06-10T00:44:19;101019.88;;;21.90;47.29
40788;BME280;26497;52.494;7.546;2023-06-10T00:46:46;101019.28;;;21.83;47.42
40788;BME280;26497;52.494;7.546;2023-06-10T00:49:15;101017.63;;;21.80;47.81
40788;BME280;26497;52.494;7.546;2023-06-10T00:51:42;101018.09;;;21.90;47.50
40788;BME280;26497;52.494;7.546;2023-06-10T00:54:09;101021.50;;;21.73;47.78
40788;BME280;26497;52.494;7.546;2023-06-10T00:56:39;101024.44;;;21.67;47.96
40788;BME280;26497;52.494;7.546;2023-06-10T00:59:08;101019.22;;;21.62;48.25
40788;BME280;26497;52.494;7.546;2023-06-10T01:01:36;101015.22;;;21.73;47.79
40788;BME280;26497;52.494;7.546;2023-06-10T01:04:04;101010.88;;;21.70;47.86
40788;BME280;26497;52.494;7.546;2023-06-10T01:06:45;101014.75;;;21.63;48.44
40788;BME280;26497;52.494;7.546;2023-06-10T01:09:24;101010.53;;;21.56;48.37
40788;BME280;26497;52.494;7.546;2023-06-10T01:12:02;101022.03;;;21.37;49.05
40788;BME280;26497;52.494;7.546;2023-06-10T01:14:33;101020.75;;;21.24;49.36
40788;BME280;26497;52.494;7.546;2023-06-10T01:17:01;101011.19;;;21.16;49.68
40788;BME280;26497;52.494;7.546;2023-06-10T01:19:29;101025.53;;;21.15;50.11
40788;BME280;26497;52.494;7.546;2023-06-10T01:21:58;101027.06;;;21.23;49.67
40788;BME280;26497;52.494;7.546;2023-06-10T01:24:26;101028.59;;;21.28;49.58
40788;BME280;26497;52.494;7.546;2023-06-10T01:26:56;101029.38;;;21.32;49.42
40788;BME280;26497;52.494;7.546;2023-06-10T01:29:34;101022.44;;;21.26;49.45
40788;BME280;26497;52.494;7.546;2023-06-10T01:32:09;101022.75;;;21.18;49.66
40788;BME280;26497;52.494;7.546;2023-06-10T01:34:39;101031.59;;;21.20;49.45
40788;BME280;26497;52.494;7.546;2023-06-10T01:37:13;101027.41;;;21.13;49.68
40788;BME280;26497;52.494;7.546;2023-06-10T01:40:03;101031.16;;;21.09;50.20
40788;BME280;26497;52.494;7.546;2023-06-10T01:42:32;101035.22;;;20.96;50.19
40788;BME280;26497;52.494;7.546;2023-06-10T01:44:59;101031.22;;;20.84;50.64
40788;BME280;26497;52.494;7.546;2023-06-10T01:47:26;101035.88;;;20.77;50.99
40788;BME280;26497;52.494;7.546;2023-06-10T01:49:53;101028.03;;;20.72;51.08
40788;BME280;26497;52.494;7.546;2023-06-10T01:52:21;101031.19;;;20.58;51.49
40788;BME280;26497;52.494;7.546;2023-06-10T01:54:48;101032.66;;;20.43;52.02
40788;BME280;26497;52.494;7.546;2023-06-10T01:57:15;101034.41;;;20.44;52.33
40788;BME280;26497;52.494;7.546;2023-06-10T01:59:42;101036.03;;;20.48;51.98
40788;BME280;26497;52.494;7.546;2023-06-10T02:02:10;101028.88;;;20.49;52.12
40788;BME280;26497;52.494;7.546;2023-06-10T02:04:37;101031.59;;;20.47;52.52
40788;BME280;26497;52.494;7.546;2023-06-10T02:07:05;101032.72;;;20.42;52.64
40788;BME280;26497;52.494;7.546;2023-06-10T02:09:33;101036.69;;;20.30;53.31
40788;BME280;26497;52.494;7.546;2023-06-10T02:12:02;101036.06;;;20.22;53.43
40788;BME280;26497;52.494;7.546;2023-06-10T02:14:29;101043.25;;;20.21;53.49
40788;BME280;26497;52.494;7.546;2023-06-10T02:16:56;101042.75;;;20.10;53.97
40788;BME280;26497;52.494;7.546;2023-06-10T02:19:23;101049.53;;;20.20;53.66
40788;BME280;26497;52.494;7.546;2023-06-10T02:21:50;101049.47;;;20.22;53.28
40788;BME280;26497;52.494;7.546;2023-06-10T02:24:17;101051.19;;;20.24;53.65
40788;BME280;26497;52.494;7.546;2023-06-10T02:26:46;101058.69;;;20.13;53.79
40788;BME280;26497;52.494;7.546;2023-06-10T02:29:13;101061.69;;;20.03;53.82
40788;BME280;26497;52.494;7.546;2023-06-10T02:31:40;101054.09;;;19.89;54.44
40788;BME280;26497;52.494;7.546;2023-06-10T02:34:07;101045.84;;;19.97;54.43
40788;BME280;26497;52.494;7.546;2023-06-10T02:36:34;101048.50;;;19.97;54.44
40788;BME280;26497;52.494;7.546;2023-06-10T02:39:02;101049.53;;;19.93;54.36
40788;BME280;26497;52.494;7.546;2023-06-10T02:41:30;101046.91;;;19.92;54.66
40788;BME280;26497;52.494;7.546;2023-06-10T02:43:58;101046.31;;;19.82;54.81
40788;BME280;26497;52.494;7.546;2023-06-10T02:46:25;101049.91;;;19.81;54.77
40788;BME280;26497;52.494;7.546;2023-06-10T02:48:54;101043.81;;;19.77;55.01
40788;BME280;26497;52.494;7.546;2023-06-10T02:51:21;101050.13;;;19.74;54.86
40788;BME280;26497;52.494;7.546;2023-06-10T02:53:48;101057.03;;;19.82;54.71
40788;BME280;26497;52.494;7.546;2023-06-10T02:56:16;101056.59;;;19.67;55.05
40788;BME280;26497;52.494;7.546;2023-06-10T02:58:43;101062.41;;;19.53;55.57
40788;BME280;26497;52.494;7.546;2023-06-10T03:01:12;101063.53;;;19.44;55.99
40788;BME280;26497;52.494;7.546;2023-06-10T03:03:39;101061.97;;;19.37;56.25
40788;BME280;26497;52.494;7.546;2023-06-10T03:06:08;101057.75;;;19.30;56.56
40788;BME280;26497;52.494;7.546;2023-06-10T03:08:36;101061.06;;;19.38;56.59
40788;BME280;26497;52.494;7.546;2023-06-10T03:11:03;101063.53;;;19.44;56.44
40788;BME280;26497;52.494;7.546;2023-06-10T03:13:30;101059.41;;;19.34;56.85
40788;BME280;26497;52.494;7.546;2023-06-10T03:15:57;101065.72;;;19.32;56.99
40788;BME280;26497;52.494;7.546;2023-06-10T03:18:27;101066.66;;;19.30;57.10
40788;BME280;26497;52.494;7.546;2023-06-10T03:20:54;101082.06;;;19.22;57.47
40788;BME280;26497;52.494;7.546;2023-06-10T03:23:22;101075.28;;;19.10;58.13
40788;BME280;26497;52.494;7.546;2023-06-10T03:25:49;101071.72;;;19.10;58.39
40788;BME280;26497;52.494;7.546;2023-06-10T03:28:16;101075.00;;;19.20;58.35
40788;BME280;26497;52.494;7.546;2023-06-10T03:30:43;101075.81;;;19.22;58.26
40788;BME280;26497;52.494;7.546;2023-06-10T03:33:10;101080.94;;;19.29;58.09
40788;BME280;26497;52.494;7.546;2023-06-10T03:35:38;101069.16;;;19.35;57.75
40788;BME280;26497;52.494;7.546;2023-06-10T03:38:05;101071.75;;;19.38;57.81
40788;BME280;26497;52.494;7.546;2023-06-10T03:40:32;101076.47;;;19.30;58.29
40788;BME280;26497;52.494;7.546;2023-06-10T03:43:00;101074.59;;;19.34;58.34
40788;BME280;26497;52.494;7.546;2023-06-10T03:45:27;101069.91;;;19.40;58.14
40788;BME280;26497;52.494;7.546;2023-06-10T03:47:54;101070.81;;;19.41;58.20
40788;BME280;26497;52.494;7.546;2023-06-10T03:50:23;101073.41;;;19.42;58.24
40788;BME280;26497;52.494;7.546;2023-06-10T03:52:51;101076.78;;;19.49;58.23
40788;BME280;26497;52.494;7.546;2023-06-10T03:55:18;101076.78;;;19.49;57.96
40788;BME280;26497;52.494;7.546;2023-06-10T03:57:47;101089.06;;;19.55;58.15
40788;BME280;26497;52.494;7.546;2023-06-10T04:00:16;101078.25;;;19.59;58.11
40788;BME280;26497;52.494;7.546;2023-06-10T04:02:44;101079.00;;;19.63;58.08
40788;BME280;26497;52.494;7.546;2023-06-10T04:05:13;101074.16;;;19.76;57.51
40788;BME280;26497;52.494;7.546;2023-06-10T04:07:40;101072.00;;;19.87;57.39
40788;BME280;26497;52.494;7.546;2023-06-10T04:10:10;101075.28;;;19.97;57.04
40788;BME280;26497;52.494;7.546;2023-06-10T04:12:37;101077.53;;;20.10;56.64
40788;BME280;26497;52.494;7.546;2023-06-10T04:15:07;101080.06;;;20.14;56.39
40788;BME280;26497;52.494;7.546;2023-06-10T04:17:34;101078.00;;;20.23;56.40
40788;BME280;26497;52.494;7.546;2023-06-10T04:20:01;101076.84;;;20.30;56.14
40788;BME280;26497;52.494;7.546;2023-06-10T04:22:29;101074.03;;;20.85;56.45
40788;BME280;26497;52.494;7.546;2023-06-10T04:24:56;101073.69;;;21.87;54.54
40788;BME280;26497;52.494;7.546;2023-06-10T04:27:26;101070.28;;;22.88;50.21
40788;BME280;26497;52.494;7.546;2023-06-10T04:29:53;101071.13;;;23.84;46.97
40788;BME280;26497;52.494;7.546;2023-06-10T04:32:20;101070.34;;;24.88;44.58
40788;BME280;26497;52.494;7.546;2023-06-10T04:34:47;101074.53;;;25.59;41.66
40788;BME280;26497;52.494;7.546;2023-06-10T04:37:14;101079.75;;;26.25;40.03
40788;BME280;26497;52.494;7.546;2023-06-10T04:39:41;101080.31;;;26.75;38.45
40788;BME280;26497;52.494;7.546;2023-06-10T04:42:08;101075.28;;;27.27;37.59
40788;BME280;26497;52.494;7.546;2023-06-10T04:44:39;101075.00;;;27.74;36.56
40788;BME280;26497;52.494;7.546;2023-06-10T04:47:07;101073.31;;;28.13;35.38
40788;BME280;26497;52.494;7.546;2023-06-10T04:49:34;101062.09;;;28.45;34.66
40788;BME280;26497;52.494;7.546;2023-06-10T04:52:03;101062.97;;;28.84;34.47
40788;BME280;26497;52.494;7.546;2023-06-10T04:54:30;101066.25;;;29.27;33.76
40788;BME280;26497;52.494;7.546;2023-06-10T04:56:58;101064.31;;;29.66;33.08
40788;BME280;26497;52.494;7.546;2023-06-10T04:59:26;101065.56;;;29.98;32.11
40788;BME280;26497;52.494;7.546;2023-06-10T05:01:54;101070.13;;;30.22;31.84
40788;BME280;26497;52.494;7.546;2023-06-10T05:04:21;101071.91;;;30.45;31.48
40788;BME280;26497;52.494;7.546;2023-06-10T05:06:48;101072.09;;;30.67;31.08
40788;BME280;26497;52.494;7.546;2023-06-10T05:09:15;101071.63;;;30.84;30.64
40788;BME280;26497;52.494;7.546;2023-06-10T05:11:42;101077.31;;;30.81;30.13
40788;BME280;26497;52.494;7.546;2023-06-10T05:14:10;101077.34;;;30.57;30.33
40788;BME280;26497;52.494;7.546;2023-06-10T05:16:37;101074.13;;;30.52;30.48
40788;BME280;26497;52.494;7.546;2023-06-10T05:19:05;101088.16;;;30.58;30.40
40788;BME280;26497;52.494;7.546;2023-06-10T05:21:32;101082.63;;;30.94;30.52
40788;BME280;26497;52.494;7.546;2023-06-10T05:23:59;101088.41;;;31.46;29.83
40788;BME280;26497;52.494;7.546;2023-06-10T05:26:26;101089.38;;;31.57;28.99
40788;BME280;26497;52.494;7.546;2023-06-10T05:28:54;101089.88;;;31.51;29.02
40788;BME280;26497;52.494;7.546;2023-06-10T05:31:22;101083.41;;;31.63;29.17
40788;BME280;26497;52.494;7.546;2023-06-10T05:33:49;101087.13;;;31.73;28.54
40788;BME280;26497;52.494;7.546;2023-06-10T05:36:17;101084.78;;;31.80;28.49
40788;BME280;26497;52.494;7.546;2023-06-10T05:38:44;101091.78;;;31.94;28.23
40788;BME280;26497;52.494;7.546;2023-06-10T05:41:11;101091.78;;;31.94;28.21
40788;BME280;26497;52.494;7.546;2023-06-10T05:43:38;101091.72;;;32.05;28.03
40788;BME280;26497;52.494;7.546;2023-06-10T05:46:05;101095.78;;;32.11;28.20
40788;BME280;26497;52.494;7.546;2023-06-10T05:48:32;101086.75;;;32.53;27.61
40788;BME280;26497;52.494;7.546;2023-06-10T05:50:59;101079.75;;;32.60;27.59
40788;BME280;26497;52.494;7.546;2023-06-10T05:53:28;101076.09;;;32.71;27.36
40788;BME280;26497;52.494;7.546;2023-06-10T05:55:55;101080.16;;;33.08;27.63
40788;BME280;26497;52.494;7.546;2023-06-10T05:58:23;101080.06;;;33.29;26.66
40788;BME280;26497;52.494;7.546;2023-06-10T06:00:50;101085.81;;;33.67;26.38
40788;BME280;26497;52.494;7.546;2023-06-10T06:03:17;101088.84;;;34.03;25.71
40788;BME280;26497;52.494;7.546;2023-06-10T06:05:44;101086.81;;;33.86;26.28
40788;BME280;26497;52.494;7.546;2023-06-10T06:08:11;101085.56;;;34.00;26.09
40788;BME280;26497;52.494;7.546;2023-06-10T06:10:44;101091.59;;;34.33;26.03
40788;BME280;26497;52.494;7.546;2023-06-10T06:13:11;101089.19;;;34.77;25.67
40788;BME280;26497;52.494;7.546;2023-06-10T06:15:38;101087.09;;;34.99;24.79
40788;BME280;26497;52.494;7.546;2023-06-10T06:18:05;101081.03;;;35.05;24.88
40788;BME280;26497;52.494;7.546;2023-06-10T06:20:32;101092.13;;;35.32;24.76
40788;BME280;26497;52.494;7.546;2023-06-10T06:22:59;101089.56;;;35.58;24.20
40788;BME280;26497;52.494;7.546;2023-06-10T06:25:27;101085.81;;;35.59;24.06
40788;BME280;26497;52.494;7.546;2023-06-10T06:27:55;101088.38;;;35.79;23.92
40788;BME280;26497;52.494;7.546;2023-06-10T06:30:22;101100.53;;;35.76;23.77
40788;BME280;26497;52.494;7.546;2023-06-10T06:32:49;101091.19;;;35.87;24.04
40788;BME280;26497;52.494;7.546;2023-06-10T06:35:17;101094.06;;;36.13;23.25
40788;BME280;26497;52.494;7.546;2023-06-10T06:37:44;101089.81;;;36.45;22.77
40788;BME280;26497;52.494;7.546;2023-06-10T06:40:12;101091.22;;;36.50;23.11
40788;BME280;26497;52.494;7.546;2023-06-10T06:42:39;101096.47;;;36.61;23.21
40788;BME280;26497;52.494;7.546;2023-06-10T06:45:09;101101.31;;;36.67;22.47
40788;BME280;26497;52.494;7.546;2023-06-10T06:47:36;101098.94;;;36.72;23.08
40788;BME280;26497;52.494;7.546;2023-06-10T06:50:04;101092.19;;;37.36;22.84
40788;BME280;26497;52.494;7.546;2023-06-10T06:52:31;101089.28;;;37.97;22.10
40788;BME280;26497;52.494;7.546;2023-06-10T06:54:58;101099.06;;;38.33;21.46
40788;BME280;26497;52.494;7.546;2023-06-10T06:57:24;101091.50;;;38.52;20.87
40788;BME280;26497;52.494;7.546;2023-06-10T06:59:51;101098.03;;;38.34;20.72
40788;BME280;26497;52.494;7.546;2023-06-10T07:02:20;101095.63;;;38.39;21.42
40788;BME280;26497;52.494;7.546;2023-06-10T07:04:47;101092.16;;;38.62;20.74
40788;BME280;26497;52.494;7.546;2023-06-10T07:07:15;101098.63;;;39.02;20.18
40788;BME280;26497;52.494;7.546;2023-06-10T07:09:42;101102.50;;;38.60;20.21
40788;BME280;26497;52.494;7.546;2023-06-10T07:12:10;101103.56;;;38.42;21.39
40788;BME280;26497;52.494;7.546;2023-06-10T07:14:37;101101.94;;;38.73;20.48
40788;BME280;26497;52.494;7.546;2023-06-10T07:17:04;101111.22;;;39.28;20.36
40788;BME280;26497;52.494;7.546;2023-06-10T07:19:32;101110.50;;;39.74;20.15
40788;BME280;26497;52.494;7.546;2023-06-10T07:21:59;101112.72;;;39.79;19.29
40788;BME280;26497;52.494;7.546;2023-06-10T07:24:26;101112.16;;;40.07;19.92
40788;BME280;26497;52.494;7.546;2023-06-10T07:26:53;101110.72;;;40.34;19.10
40788;BME280;26497;52.494;7.546;2023-06-10T07:29:20;101116.38;;;40.18;19.03
40788;BME280;26497;52.494;7.546;2023-06-10T07:31:47;101108.78;;;39.73;19.09
40788;BME280;26497;52.494;7.546;2023-06-10T07:34:14;101116.75;;;39.36;19.33
40788;BME280;26497;52.494;7.546;2023-06-10T07:36:42;101119.72;;;39.58;19.84
40788;BME280;26497;52.494;7.546;2023-06-10T07:39:09;101112.41;;;39.97;19.74
40788;BME280;26497;52.494;7.546;2023-06-10T07:41:36;101107.81;;;40.36;19.63
40788;BME280;26497;52.494;7.546;2023-06-10T07:44:03;101117.09;;;40.73;18.65
40788;BME280;26497;52.494;7.546;2023-06-10T07:46:30;101117.47;;;40.70;17.57
40788;BME280;26497;52.494;7.546;2023-06-10T07:48:57;101127.44;;;40.41;19.03
40788;BME280;26497;52.494;7.546;2023-06-10T07:51:24;101124.16;;;40.37;18.87
40788;BME280;26497;52.494;7.546;2023-06-10T07:53:53;101117.88;;;40.29;18.78
40788;BME280;26497;52.494;7.546;2023-06-10T07:56:20;101119.91;;;40.50;18.71
40788;BME280;26497;52.494;7.546;2023-06-10T07:58:47;101120.53;;;40.75;19.09
40788;BME280;26497;52.494;7.546;2023-06-10T08:01:15;101124.53;;;41.18;17.58
40788;BME280;26497;52.494;7.546;2023-06-10T08:03:42;101118.59;;;41.36;17.93
40788;BME280;26497;52.494;7.546;2023-06-10T08:06:10;101121.47;;;41.27;17.80
40788;BME280;26497;52.494;7.546;2023-06-10T08:08:37;101116.72;;;41.06;18.10
40788;BME280;26497;52.494;7.546;2023-06-10T08:11:09;101108.22;;;40.93;18.13
40788;BME280;26497;52.494;7.546;2023-06-10T08:13:37;101114.81;;;40.92;18.21
40788;BME280;26497;52.494;7.546;2023-06-10T08:16:05;101106.66;;;40.45;18.27
40788;BME280;26497;52.494;7.546;2023-06-10T08:18:33;101112.09;;;40.53;18.28
40788;BME280;26497;52.494;7.546;2023-06-10T08:21:00;101106.25;;;40.72;17.75
40788;BME280;26497;52.494;7.546;2023-06-10T08:23:27;101106.06;;;40.88;17.92
40788;BME280;26497;52.494;7.546;2023-06-10T08:25:54;101103.28;;;40.88;17.86
40788;BME280;26497;52.494;7.546;2023-06-10T08:28:22;101116.59;;;41.30;18.21
40788;BME280;26497;52.494;7.546;2023-06-10T08:30:49;101103.69;;;41.95;17.30
40788;BME280;26497;52.494;7.546;2023-06-10T08:33:16;101118.22;;;42.19;16.96
40788;BME280;26497;52.494;7.546;2023-06-10T08:35:43;101112.75;;;42.26;16.62
40788;BME280;26497;52.494;7.546;2023-06-10T08:38:10;101111.63;;;42.42;16.86
40788;BME280;26497;52.494;7.546;2023-06-10T08:40:37;101108.78;;;42.64;17.28
40788;BME280;26497;52.494;7.546;2023-06-10T08:43:07;101106.91;;;43.06;16.42
40788;BME280;26497;52.494;7.546;2023-06-10T08:45:36;101115.13;;;43.28;16.39
40788;BME280;26497;52.494;7.546;2023-06-10T08:48:05;101111.94;;;43.31;16.65
40788;BME280;26497;52.494;7.546;2023-06-10T08:50:35;101110.94;;;43.59;16.34
40788;BME280;26497;52.494;7.546;2023-06-10T08:53:06;101108.88;;;43.68;16.22
40788;BME280;26497;52.494;7.546;2023-06-10T08:55:35;101107.75;;;43.55;15.59
40788;BME280;26497;52.494;7.546;2023-06-10T08:58:04;101110.50;;;43.00;15.46
40788;BME280;26497;52.494;7.546;2023-06-10T09:00:32;101103.75;;;42.46;16.14
40788;BME280;26497;52.494;7.546;2023-06-10T09:03:01;101105.75;;;42.30;16.51
40788;BME280;26497;52.494;7.546;2023-06-10T09:05:31;101102.91;;;42.45;16.35
40788;BME280;26497;52.494;7.546;2023-06-10T09:11:42;101100.97;;;42.81;15.99
40788;BME280;26497;52.494;7.546;2023-06-10T09:14:09;101102.44;;;43.12;16.75
40788;BME280;26497;52.494;7.546;2023-06-10T09:16:38;101097.88;;;43.33;16.41
40788;BME280;26497;52.494;7.546;2023-06-10T09:19:09;101097.03;;;43.39;16.17
40788;BME280;26497;52.494;7.546;2023-06-10T09:21:37;101091.91;;;43.36;14.83
40788;BME280;26497;52.494;7.546;2023-06-10T09:24:05;101089.72;;;43.31;15.54
40788;BME280;26497;52.494;7.546;2023-06-10T09:26:33;101091.25;;;43.34;15.46
40788;BME280;26497;52.494;7.546;2023-06-10T09:29:07;101080.91;;;43.21;14.74
40788;BME280;26497;52.494;7.546;2023-06-10T09:31:36;101077.28;;;43.20;15.73
40788;BME280;26497;52.494;7.546;2023-06-10T09:34:09;101079.72;;;43.37;15.29
40788;BME280;26497;52.494;7.546;2023-06-10T09:36:37;101073.66;;;43.20;15.46
40788;BME280;26497;52.494;7.546;2023-06-10T09:39:05;101084.25;;;43.51;15.12
40788;BME280;26497;52.494;7.546;2023-06-10T09:41:40;101080.88;;;43.69;15.22
40788;BME280;26497;52.494;7.546;2023-06-10T09:44:12;101081.69;;;43.63;14.76
40788;BME280;26497;52.494;7.546;2023-06-10T09:46:41;101082.59;;;43.70;15.43
40788;BME280;26497;52.494;7.546;2023-06-10T09:49:10;101076.31;;;43.41;14.70
40788;BME280;26497;52.494;7.546;2023-06-10T09:51:37;101080.91;;;43.21;15.24
40788;BME280;26497;52.494;7.546;2023-06-10T09:54:04;101073.97;;;43.31;15.69
40788;BME280;26497;52.494;7.546;2023-06-10T09:56:35;101073.41;;;43.14;15.19
40788;BME280;26497;52.494;7.546;2023-06-10T09:59:03;101083.22;;;43.03;14.84
40788;BME280;26497;52.494;7.546;2023-06-10T10:01:32;101081.13;;;42.77;15.35
40788;BME280;26497;52.494;7.546;2023-06-10T10:03:59;101072.06;;;42.90;15.66
40788;BME280;26497;52.494;7.546;2023-06-10T10:06:28;101068.94;;;43.13;14.25
40788;BME280;26497;52.494;7.546;2023-06-10T10:08:55;101077.91;;;43.15;14.44
40788;BME280;26497;52.494;7.546;2023-06-10T10:11:23;101082.09;;;43.40;14.42
40788;BME280;26497;52.494;7.546;2023-06-10T10:13:52;101085.38;;;43.70;14.67
40788;BME280;26497;52.494;7.546;2023-06-10T10:16:21;101082.00;;;44.29;14.82
40788;BME280;26497;52.494;7.546;2023-06-10T10:18:54;101082.63;;;44.58;15.47
40788;BME280;26497;52.494;7.546;2023-06-10T10:21:24;101076.34;;;44.83;13.54
40788;BME280;26497;52.494;7.546;2023-06-10T10:24:01;101075.84;;;45.06;13.66
40788;BME280;26497;52.494;7.546;2023-06-10T10:26:31;101077.19;;;44.83;13.69
40788;BME280;26497;52.494;7.546;2023-06-10T10:29:09;101085.81;;;44.48;13.75
40788;BME280;26497;52.494;7.546;2023-06-10T10:31:38;101078.75;;;44.59;14.69
40788;BME280;26497;52.494;7.546;2023-06-10T10:34:09;101077.66;;;44.67;12.86
40788;BME280;26497;52.494;7.546;2023-06-10T10:36:38;101076.53;;;44.81;13.49
40788;BME280;26497;52.494;7.546;2023-06-10T10:39:06;101076.56;;;44.88;13.19
40788;BME280;26497;52.494;7.546;2023-06-10T10:41:34;101079.34;;;44.74;13.31
40788;BME280;26497;52.494;7.546;2023-06-10T10:44:04;101071.41;;;44.85;14.04
40788;BME280;26497;52.494;7.546;2023-06-10T10:46:42;101083.34;;;45.05;13.55
40788;BME280;26497;52.494;7.546;2023-06-10T10:49:11;101076.13;;;44.91;13.52
40788;BME280;26497;52.494;7.546;2023-06-10T10:51:55;101078.78;;;44.39;13.13
40788;BME280;26497;52.494;7.546;2023-06-10T10:54:30;101073.00;;;43.86;12.62
40788;BME280;26497;52.494;7.546;2023-06-10T10:57:14;101077.41;;;43.47;13.32
40788;BME280;26497;52.494;7.546;2023-06-10T10:59:50;101066.63;;;43.24;13.88
40788;BME280;26497;52.494;7.546;2023-06-10T11:02:18;101070.22;;;43.17;13.88
40788;BME280;26497;52.494;7.546;2023-06-10T11:04:47;101066.09;;;43.62;14.66
40788;BME280;26497;52.494;7.546;2023-06-10T11:07:15;101075.38;;;44.16;13.67
40788;BME280;26497;52.494;7.546;2023-06-10T11:09:59;101071.50;;;43.97;13.33
40788;BME280;26497;52.494;7.546;2023-06-10T11:12:49;101074.25;;;43.64;14.36
40788;BME280;26497;52.494;7.546;2023-06-10T11:15:23;101059.13;;;43.73;14.72
40788;BME280;26497;52.494;7.546;2023-06-10T11:18:20;101060.66;;;44.16;14.26
40788;BME280;26497;52.494;7.546;2023-06-10T11:21:11;101073.03;;;44.20;14.75
40788;BME280;26497;52.494;7.546;2023-06-10T11:23:41;101065.31;;;44.29;13.14
40788;BME280;26497;52.494;7.546;2023-06-10T11:26:30;101062.13;;;44.12;13.56
40788;BME280;26497;52.494;7.546;2023-06-10T11:29:08;101059.97;;;43.94;13.39
40788;BME280;26497;52.494;7.546;2023-06-10T11:31:48;101052.72;;;43.86;13.55
40788;BME280;26497;52.494;7.546;2023-06-10T11:34:22;101059.53;;;43.97;14.50
40788;BME280;26497;52.494;7.546;2023-06-10T11:36:51;101051.84;;;44.05;13.28
40788;BME280;26497;52.494;7.546;2023-06-10T11:39:21;101061.88;;;43.86;13.38
40788;BME280;26497;52.494;7.546;2023-06-10T11:41:51;101060.84;;;43.94;13.65
40788;BME280;26497;52.494;7.546;2023-06-10T11:44:18;101054.00;;;44.17;12.42
40788;BME280;26497;52.494;7.546;2023-06-10T11:46:48;101058.91;;;43.95;13.36
40788;BME280;26497;52.494;7.546;2023-06-10T11:49:15;101058.47;;;43.98;12.68
40788;BME280;26497;52.494;7.546;2023-06-10T11:51:43;101041.41;;;44.21;13.34
40788;BME280;26497;52.494;7.546;2023-06-10T11:54:15;101041.31;;;44.61;13.86
40788;BME280;26497;52.494;7.546;2023-06-10T11:56:43;101042.16;;;44.69;12.45
40788;BME280;26497;52.494;7.546;2023-06-10T11:59:11;101032.94;;;44.75;11.94
40788;BME280;26497;52.494;7.546;2023-06-10T12:01:43;101050.34;;;44.37;13.06
40788;BME280;26497;52.494;7.546;2023-06-10T12:04:12;101041.56;;;44.40;12.52
40788;BME280;26497;52.494;7.546;2023-06-10T12:06:41;101039.84;;;44.45;12.64
40788;BME280;26497;52.494;7.546;2023-06-10T12:09:17;101039.41;;;44.55;12.63
40788;BME280;26497;52.494;7.546;2023-06-10T12:11:45;101035.34;;;44.51;12.88
40788;BME280;26497;52.494;7.546;2023-06-10T12:14:13;101029.75;;;44.65;12.07
40788;BME280;26497;52.494;7.546;2023-06-10T12:16:41;101032.03;;;44.95;12.56
40788;BME280;26497;52.494;7.546;2023-06-10T12:19:14;101026.06;;;44.91;12.11
40788;BME280;26497;52.494;7.546;2023-06-10T12:21:41;101026.34;;;44.69;12.39
40788;BME280;26497;52.494;7.546;2023-06-10T12:24:10;101021.56;;;44.83;12.03
40788;BME280;26497;52.494;7.546;2023-06-10T12:26:42;101021.97;;;44.94;13.21
40788;BME280;26497;52.494;7.546;2023-06-10T12:29:22;101018.88;;;45.09;11.82
40788;BME280;26497;52.494;7.546;2023-06-10T12:31:58;101020.28;;;44.79;12.19
40788;BME280;26497;52.494;7.546;2023-06-10T12:34:34;101019.38;;;45.05;12.29
40788;BME280;26497;52.494;7.546;2023-06-10T12:37:01;101016.16;;;45.73;11.77
40788;BME280;26497;52.494;7.546;2023-06-10T12:39:30;101016.81;;;45.93;11.58
40788;BME280;26497;52.494;7.546;2023-06-10T12:41:57;101022.22;;;45.88;10.83
40788;BME280;26497;52.494;7.546;2023-06-10T12:44:33;101009.75;;;45.40;12.23
40788;BME280;26497;52.494;7.546;2023-06-10T12:47:07;101009.88;;;45.13;10.84
40788;BME280;26497;52.494;7.546;2023-06-10T12:50:00;101004.13;;;45.08;11.19
40788;BME280;26497;52.494;7.546;2023-06-10T12:52:27;100997.19;;;44.92;11.62
40788;BME280;26497;52.494;7.546;2023-06-10T12:54:54;101015.41;;;44.68;12.87
40788;BME280;26497;52.494;7.546;2023-06-10T12:57:22;101011.72;;;44.94;11.60
40788;BME280;26497;52.494;7.546;2023-06-10T12:59:50;101008.69;;;45.02;10.34
40788;BME280;26497;52.494;7.546;2023-06-10T13:02:18;101003.94;;;45.03;11.18